Other Surface Observations
Issued by NWS Great Falls, MT

Home | Current Version | Previous Version | Text Only | Print | Product List | Glossary On
Versions: 1 2 3 4 5 6 7 8 9 10 11 12 13 14 15 16 17 18 19 20 21 22 23 24 25 26 27 28 29 30 31 32 33 34 35 36 37 38 39 40 41 42 43 44 45 46 47 48 49 50
215
SXUS55 KTFX 250044
OSOTFX
AREA AWOS OBSERVATIONS
NATIONAL WEATHER SERVICE GREAT FALLS MT
0644 PM MDT SAT JUN 24 2017

METAR KPWD 250045Z AUTO 33005KT 10SM 19/01 A3027 RMK PLENTYWOOD
METAR KPO1 250045Z AUTO 34006KT 10SM 21/01 A3027 RMK POPLAR
METAR K1S3 250045Z AUTO 36005KT 9SM 22/M01 A3027 RMK FORSYTH
METAR KS71 250045Z AUTO 31006KT 10SM 22/03 A3028 RMK CHINOOK
METAR K79S 250045Z AUTO 8SM 21/04 RMK FORT BENTON
METAR K38S 250045Z AUTO 33009KT 10SM 23/04 A3028 RMK DEER LODGE
METAR K3U3 250045Z AUTO 36008KT 10SM 22/02 A3028 RMK ANACONDA
METAR K6S5 250045Z AUTO 33008KT 10SM 26/04 A3020 RMK HAMILTON
METAR K88M 250045Z AUTO 10SM 28/01 A3018 RMK EUREKA



USA.gov is the U.S. government's official web portal to all federal, state and local government web resources and services.